createdAt,value
2023-03-21T00:00:43.375Z,4.18
2023-03-21T00:03:10.189Z,5.32
2023-03-21T00:05:51.825Z,5.55
2023-03-21T00:08:18.504Z,5.95
2023-03-21T00:10:45.213Z,6.38
2023-03-21T00:13:15.808Z,7.38
2023-03-21T00:16:05.210Z,7.32
2023-03-21T00:18:42.244Z,8.68
2023-03-21T00:21:39.514Z,8.15
2023-03-21T00:24:00.753Z,7.90
2023-03-21T00:26:27.557Z,9.02
2023-03-21T00:28:54.314Z,7.75
2023-03-21T00:31:20.979Z,8.10
2023-03-21T00:33:47.581Z,8.32
2023-03-21T00:36:14.558Z,9.35
2023-03-21T00:38:41.552Z,8.57
2023-03-21T00:41:20.885Z,7.35
2023-03-21T00:43:55.631Z,6.93
2023-03-21T00:46:25.204Z,6.88
2023-03-21T00:48:52.241Z,6.53
2023-03-21T00:51:26.707Z,6.45
2023-03-21T00:53:55.693Z,6.68
2023-03-21T00:56:22.426Z,5.95
2023-03-21T00:58:49.519Z,5.60
2023-03-21T01:01:16.161Z,5.70
2023-03-21T01:03:47.948Z,4.28
2023-03-21T01:06:19.305Z,3.90
2023-03-21T01:08:52.620Z,3.45
2023-03-21T01:11:23.698Z,4.28
2023-03-21T01:13:56.095Z,5.68
2023-03-21T01:16:28.873Z,4.97
2023-03-21T01:18:56.331Z,5.85
2023-03-21T01:21:23.165Z,7.35
2023-03-21T01:23:49.780Z,5.90
2023-03-21T01:26:16.407Z,5.57
2023-03-21T01:28:44.069Z,5.85
2023-03-21T01:31:13.995Z,5.85
2023-03-21T01:33:40.973Z,5.28
2023-03-21T01:36:13.293Z,5.88
2023-03-21T01:38:41.762Z,5.50
2023-03-21T01:41:20.077Z,5.28
2023-03-21T01:43:47.710Z,6.40
2023-03-21T01:46:47.832Z,6.07
2023-03-21T01:49:36.044Z,5.35
2023-03-21T01:52:17.009Z,4.95
2023-03-21T01:54:47.751Z,4.93
2023-03-21T01:57:21.990Z,5.10
2023-03-21T01:59:51.439Z,4.55
2023-03-21T02:02:29.961Z,3.65
2023-03-21T02:04:58.176Z,3.47
2023-03-21T02:07:36.884Z,3.50
2023-03-21T02:10:08.114Z,3.92
2023-03-21T02:12:34.785Z,3.83
2023-03-21T02:15:01.736Z,4.43
2023-03-21T02:17:41.095Z,4.38
2023-03-21T02:20:37.444Z,4.38
2023-03-21T02:23:41.606Z,4.10
2023-03-21T02:26:20.240Z,3.83
2023-03-21T02:28:58.178Z,4.20
2023-03-21T02:31:36.428Z,4.57
2023-03-21T02:34:28.858Z,4.13
2023-03-21T02:37:17.134Z,5.40
2023-03-21T02:40:11.297Z,5.28
2023-03-21T02:43:01.049Z,4.82
2023-03-21T02:45:36.256Z,4.85
2023-03-21T02:48:20.314Z,4.65
2023-03-21T02:50:53.368Z,4.53
2023-03-21T02:53:24.289Z,4.70
2023-03-21T02:55:53.522Z,4.88
2023-03-21T02:58:23.309Z,5.53
2023-03-21T03:00:50.848Z,4.45
2023-03-21T03:03:28.139Z,4.90
2023-03-21T03:06:02.553Z,5.05
2023-03-21T03:08:52.898Z,5.15
2023-03-21T03:11:41.710Z,4.35
2023-03-21T03:15:02.203Z,5.30
2023-03-21T03:20:17.480Z,5.55
2023-03-21T03:22:52.485Z,4.32
2023-03-21T03:25:54.437Z,4.65
2023-03-21T03:28:28.812Z,4.72
2023-03-21T03:31:08.829Z,5.95
2023-03-21T03:33:41.662Z,3.70
2023-03-21T03:36:18.846Z,5.40
2023-03-21T03:38:51.911Z,5.00
2023-03-21T03:41:25.576Z,4.22
2023-03-21T03:43:56.081Z,4.70
2023-03-21T03:46:33.431Z,4.55
2023-03-21T03:49:10.920Z,4.32
2023-03-21T03:51:42.814Z,4.78
2023-03-21T03:54:14.314Z,4.68
2023-03-21T03:56:41.114Z,6.60
2023-03-21T03:59:08.126Z,4.95
2023-03-21T04:01:35.114Z,5.20
2023-03-21T04:04:12.628Z,4.90
2023-03-21T04:06:40.240Z,5.45
2023-03-21T04:09:19.301Z,4.43
2023-03-21T04:11:47.766Z,4.97
2023-03-21T04:14:14.631Z,4.85
2023-03-21T04:16:41.335Z,3.67
2023-03-21T04:19:07.999Z,4.60
2023-03-21T04:21:34.567Z,4.20
2023-03-21T04:24:01.274Z,4.47
2023-03-21T04:26:32.994Z,3.85
2023-03-21T04:29:01.024Z,4.25
2023-03-21T04:31:28.662Z,3.72
2023-03-21T04:33:56.145Z,3.92
2023-03-21T04:36:27.638Z,3.55
2023-03-21T04:38:57.298Z,3.53
2023-03-21T04:41:24.060Z,3.15
2023-03-21T04:43:52.414Z,3.60
2023-03-21T04:46:19.240Z,3.88
2023-03-21T04:48:47.215Z,2.40
2023-03-21T04:51:13.821Z,3.55
2023-03-21T04:53:42.636Z,3.30
2023-03-21T04:56:09.758Z,2.72
2023-03-21T04:58:36.349Z,3.53
2023-03-21T05:01:05.848Z,3.53
2023-03-21T05:03:34.818Z,3.35
2023-03-21T05:06:01.915Z,2.90
2023-03-21T05:08:28.676Z,3.55
2023-03-21T05:10:55.402Z,2.42
2023-03-21T05:13:21.949Z,2.60
2023-03-21T05:15:48.512Z,2.30
2023-03-21T05:18:15.321Z,2.50
2023-03-21T05:20:45.199Z,2.90
2023-03-21T05:23:12.408Z,3.15
2023-03-21T05:25:40.081Z,3.20
2023-03-21T05:28:07.738Z,2.78
2023-03-21T05:30:34.700Z,3.22
2023-03-21T05:33:01.478Z,3.30
2023-03-21T05:35:28.384Z,3.75
2023-03-21T05:37:55.195Z,3.70
2023-03-21T05:40:21.811Z,3.92
2023-03-21T05:42:48.625Z,3.47
2023-03-21T05:45:16.242Z,3.67
2023-03-21T05:47:42.857Z,4.10
2023-03-21T05:50:11.208Z,3.70
2023-03-21T05:52:37.835Z,3.33
2023-03-21T05:55:05.432Z,2.78
2023-03-21T05:57:35.054Z,2.70
2023-03-21T06:00:02.090Z,3.13
2023-03-21T06:02:28.804Z,2.88
2023-03-21T06:04:56.632Z,2.75
2023-03-21T06:07:23.429Z,2.75
2023-03-21T06:09:50.575Z,4.60
2023-03-21T06:12:17.156Z,3.33
2023-03-21T06:14:43.718Z,4.38
2023-03-21T06:17:10.352Z,4.53
2023-03-21T06:19:36.924Z,4.13
2023-03-21T06:22:03.617Z,6.28
2023-03-21T06:24:30.192Z,5.10
2023-03-21T06:26:56.738Z,5.68
2023-03-21T06:29:23.403Z,5.97
2023-03-21T06:31:50.224Z,6.05
2023-03-21T06:34:16.807Z,6.65
2023-03-21T06:36:44.816Z,5.80
2023-03-21T06:39:11.483Z,6.60
2023-03-21T06:41:38.087Z,5.78
2023-03-21T06:44:05.134Z,6.30
2023-03-21T06:46:31.802Z,6.45
2023-03-21T06:48:58.373Z,5.53
2023-03-21T06:51:25.214Z,5.82
2023-03-21T06:53:51.746Z,5.68
2023-03-21T06:56:18.330Z,5.57
2023-03-21T06:58:45.025Z,5.50
2023-03-21T07:01:11.905Z,6.50
2023-03-21T07:03:39.488Z,5.88
2023-03-21T07:06:12.018Z,6.40
2023-03-21T07:08:39.785Z,5.93
2023-03-21T07:11:07.137Z,6.30
2023-03-21T07:13:34.022Z,6.22
2023-03-21T07:16:00.921Z,6.10
2023-03-21T07:18:27.964Z,5.65
2023-03-21T07:20:54.672Z,6.88
2023-03-21T07:23:23.518Z,6.05
2023-03-21T07:25:50.901Z,5.85
2023-03-21T07:28:18.582Z,5.88
2023-03-21T07:30:46.073Z,6.93
2023-03-21T07:33:12.903Z,5.93
2023-03-21T07:35:40.762Z,6.30
2023-03-21T07:38:07.687Z,5.75
2023-03-21T07:40:34.296Z,5.90
2023-03-21T07:45:32.456Z,6.13
2023-03-21T07:47:59.065Z,5.95
2023-03-21T07:50:25.763Z,5.80
2023-03-21T07:52:52.471Z,5.85
2023-03-21T07:55:19.221Z,6.00
2023-03-21T07:57:46.607Z,5.80
2023-03-21T08:00:22.752Z,6.50
2023-03-21T08:02:57.920Z,5.75
2023-03-21T08:05:28.959Z,7.05
2023-03-21T08:07:56.285Z,6.43
2023-03-21T08:10:23.204Z,6.95
2023-03-21T08:12:49.879Z,6.57
2023-03-21T08:15:16.780Z,6.15
2023-03-21T08:17:45.604Z,5.97
2023-03-21T08:20:21.237Z,6.32
2023-03-21T08:22:49.369Z,6.20
2023-03-21T08:25:18.470Z,5.57
2023-03-21T08:27:46.939Z,5.40
2023-03-21T08:30:16.558Z,5.70
2023-03-21T08:32:43.542Z,4.95
2023-03-21T08:35:12.560Z,4.90
2023-03-21T08:37:40.915Z,5.05
2023-03-21T08:40:11.528Z,4.40
2023-03-21T08:42:39.216Z,4.90
2023-03-21T08:45:07.139Z,4.70
2023-03-21T08:47:34.151Z,4.93
2023-03-21T08:50:01.825Z,6.50
2023-03-21T08:52:28.545Z,9.05
2023-03-21T08:54:55.328Z,7.13
2023-03-21T08:57:22.126Z,4.53
2023-03-21T08:59:48.758Z,6.38
2023-03-21T09:02:16.733Z,5.13
2023-03-21T09:04:44.895Z,6.40
2023-03-21T09:07:14.363Z,4.70
2023-03-21T09:09:41.703Z,5.90
2023-03-21T09:12:08.414Z,6.40
2023-03-21T09:14:35.437Z,6.05
2023-03-21T09:17:02.169Z,5.32
2023-03-21T09:19:30.099Z,4.80
2023-03-21T09:21:57.912Z,5.13
2023-03-21T09:24:24.666Z,4.60
2023-03-21T09:26:51.688Z,4.78
2023-03-21T09:29:23.317Z,4.80
2023-03-21T09:31:49.996Z,5.18
2023-03-21T09:34:16.991Z,4.80
2023-03-21T09:36:48.461Z,4.25
2023-03-21T09:39:17.431Z,4.60
2023-03-21T09:42:10.294Z,6.18
2023-03-21T09:44:44.025Z,4.03
2023-03-21T09:47:25.112Z,4.82
2023-03-21T09:52:57.350Z,4.88
2023-03-21T09:55:35.191Z,4.20
2023-03-21T09:58:07.188Z,4.43
2023-03-21T10:00:39.855Z,4.45
2023-03-21T10:03:19.492Z,5.10
2023-03-21T10:05:48.626Z,4.78
2023-03-21T10:08:26.129Z,4.95
2023-03-21T10:11:01.378Z,4.88
2023-03-21T10:13:31.317Z,4.95
2023-03-21T10:16:00.999Z,5.18
2023-03-21T10:18:30.942Z,5.15
2023-03-21T10:20:57.642Z,5.28
2023-03-21T10:23:29.390Z,5.60
2023-03-21T10:26:01.461Z,4.90
2023-03-21T10:28:52.073Z,6.00
2023-03-21T10:33:50.657Z,5.43
2023-03-21T10:36:19.347Z,5.75
2023-03-21T10:38:52.870Z,5.30
2023-03-21T10:41:21.177Z,5.45
2023-03-21T10:44:05.550Z,5.25
2023-03-21T10:46:35.893Z,5.93
2023-03-21T10:49:03.153Z,6.07
2023-03-21T10:51:37.104Z,5.57
2023-03-21T10:54:15.927Z,5.78
2023-03-21T10:56:55.706Z,5.90
2023-03-21T10:59:22.895Z,5.80
2023-03-21T11:01:52.890Z,5.93
2023-03-21T11:04:22.733Z,5.68
2023-03-21T11:06:55.391Z,7.75
2023-03-21T11:09:25.239Z,6.35
2023-03-21T11:12:03.899Z,6.40
2023-03-21T11:14:38.745Z,6.20
2023-03-21T11:17:17.515Z,6.25
2023-03-21T11:19:49.582Z,6.25
2023-03-21T11:22:20.568Z,6.90
2023-03-21T11:24:54.218Z,5.97
2023-03-21T11:27:21.297Z,6.25
2023-03-21T11:29:51.203Z,6.43
2023-03-21T11:32:51.044Z,6.43
2023-03-21T11:35:24.661Z,6.30
2023-03-21T11:37:56.522Z,5.80
2023-03-21T11:40:23.603Z,5.57
2023-03-21T11:43:02.233Z,6.00
2023-03-21T11:45:31.489Z,6.53
2023-03-21T11:48:00.622Z,5.72
2023-03-21T11:50:37.442Z,6.20
2023-03-21T11:53:38.460Z,5.82
2023-03-21T11:56:27.651Z,5.75
2023-03-21T11:59:16.420Z,6.45
2023-03-21T12:02:05.951Z,6.28
2023-03-21T12:04:41.724Z,5.45
2023-03-21T12:07:26.659Z,5.00
2023-03-21T12:10:08.575Z,5.43
2023-03-21T12:12:54.186Z,5.80
2023-03-21T12:15:27.847Z,5.32
2023-03-21T12:18:14.796Z,5.07
2023-03-21T12:21:15.784Z,5.18
2023-03-21T12:23:42.367Z,5.63
2023-03-21T12:26:12.867Z,7.05
2023-03-21T12:28:48.354Z,13.45
2023-03-21T12:31:21.114Z,10.05
2023-03-21T12:34:00.385Z,10.30
2023-03-21T12:37:03.619Z,16.45
2023-03-21T12:39:40.095Z,7.20
2023-03-21T12:42:16.031Z,5.57
2023-03-21T12:44:48.795Z,6.25
2023-03-21T12:47:21.638Z,5.93
2023-03-21T12:50:03.691Z,7.15
2023-03-21T12:52:35.573Z,4.53
2023-03-21T12:55:10.702Z,5.55
2023-03-21T12:57:56.792Z,5.38
2023-03-21T13:00:50.268Z,8.20
2023-03-21T13:03:33.593Z,5.15
2023-03-21T13:06:07.148Z,5.35
2023-03-21T13:08:37.347Z,5.65
2023-03-21T13:11:07.012Z,5.40
2023-03-21T13:13:42.465Z,4.50
2023-03-21T13:16:30.286Z,5.05
2023-03-21T13:19:14.097Z,4.90
2023-03-21T13:21:54.399Z,5.10
2023-03-21T13:24:38.062Z,5.22
2023-03-21T13:27:17.113Z,4.75
2023-03-21T13:29:53.090Z,6.18
2023-03-21T13:32:33.622Z,4.45
2023-03-21T13:35:10.012Z,8.18
2023-03-21T13:37:42.001Z,5.70
2023-03-21T13:40:23.135Z,4.93
2023-03-21T13:45:52.748Z,5.30
2023-03-21T13:48:31.588Z,4.05
2023-03-21T13:51:05.742Z,4.30
2023-03-21T13:53:40.789Z,4.60
2023-03-21T13:56:19.659Z,5.65
2023-03-21T13:58:46.622Z,5.72
2023-03-21T14:01:34.156Z,6.38
2023-03-21T14:04:24.163Z,4.60
2023-03-21T14:07:26.484Z,5.65
2023-03-21T14:09:56.892Z,4.03
2023-03-21T14:12:27.577Z,4.35
2023-03-21T14:15:07.084Z,3.72
2023-03-21T14:17:37.346Z,4.38
2023-03-21T14:20:18.696Z,5.10
2023-03-21T14:22:48.360Z,3.90
2023-03-21T14:25:18.056Z,4.20
2023-03-21T14:27:51.135Z,3.72
2023-03-21T14:30:26.613Z,4.53
2023-03-21T14:32:59.880Z,3.97
2023-03-21T14:35:31.351Z,3.50
2023-03-21T14:38:01.840Z,4.47
2023-03-21T14:40:29.248Z,3.95
2023-03-21T14:42:55.992Z,3.72
2023-03-21T14:45:28.138Z,4.78
2023-03-21T14:47:57.119Z,3.65
2023-03-21T14:50:44.007Z,3.72
2023-03-21T14:53:16.450Z,3.80
2023-03-21T14:56:05.165Z,4.65
2023-03-21T14:58:33.653Z,3.72
2023-03-21T15:01:06.441Z,3.65
2023-03-21T15:03:33.869Z,4.15
2023-03-21T15:06:01.484Z,3.40
2023-03-21T15:08:29.303Z,3.55
2023-03-21T15:11:06.309Z,3.75
2023-03-21T15:13:38.007Z,3.28
2023-03-21T15:16:05.309Z,3.55
2023-03-21T15:18:34.459Z,3.33
2023-03-21T15:21:27.835Z,3.50
2023-03-21T15:23:58.545Z,2.97
2023-03-21T15:26:26.515Z,2.90
2023-03-21T15:28:58.438Z,3.45
2023-03-21T15:31:47.339Z,3.30
2023-03-21T15:34:27.747Z,2.92
2023-03-21T15:37:09.159Z,3.40
2023-03-21T15:39:38.473Z,3.60
2023-03-21T15:42:22.590Z,3.20
2023-03-21T15:44:53.223Z,3.33
2023-03-21T15:47:39.641Z,2.85
2023-03-21T15:50:17.386Z,3.33
2023-03-21T15:52:44.371Z,3.40
2023-03-21T15:55:28.043Z,3.10
2023-03-21T15:58:01.227Z,2.80
2023-03-21T16:00:55.225Z,2.95
2023-03-21T16:03:25.432Z,2.60
2023-03-21T16:06:11.542Z,3.05
2023-03-21T16:08:51.036Z,2.80
2023-03-21T16:11:23.603Z,3.33
2023-03-21T16:13:54.492Z,3.00
2023-03-21T16:16:21.207Z,2.80
2023-03-21T16:18:48.766Z,3.10
2023-03-21T16:21:18.346Z,2.70
2023-03-21T16:23:45.710Z,2.97
2023-03-21T16:26:16.673Z,2.88
2023-03-21T16:31:15.970Z,3.03
2023-03-21T16:33:44.058Z,3.00
2023-03-21T16:36:18.480Z,3.20
2023-03-21T16:38:50.000Z,3.15
2023-03-21T16:41:17.401Z,2.70
2023-03-21T16:43:44.586Z,2.72
2023-03-21T16:46:20.186Z,2.78
2023-03-21T16:48:49.945Z,3.08
2023-03-21T16:53:49.872Z,3.00
2023-03-21T16:56:24.339Z,4.05
2023-03-21T16:58:53.514Z,4.05
2023-03-21T17:01:25.989Z,3.10
2023-03-21T17:03:53.284Z,3.60
2023-03-21T17:06:25.399Z,3.35
2023-03-21T17:08:53.366Z,3.35
2023-03-21T17:11:22.172Z,2.95
2023-03-21T17:13:51.148Z,3.60
2023-03-21T17:16:22.095Z,3.88
2023-03-21T17:18:49.760Z,3.80
2023-03-21T17:21:21.546Z,4.40
2023-03-21T17:23:48.870Z,3.90
2023-03-21T17:26:22.733Z,3.75
2023-03-21T17:28:49.515Z,3.40
2023-03-21T17:31:22.087Z,3.58
2023-03-21T17:33:49.073Z,3.75
2023-03-21T17:36:26.461Z,4.57
2023-03-21T17:38:53.189Z,3.70
2023-03-21T17:41:20.742Z,3.15
2023-03-21T17:43:47.532Z,3.33
2023-03-21T17:46:16.499Z,3.08
2023-03-21T17:48:43.952Z,3.15
2023-03-21T17:51:17.803Z,3.78
2023-03-21T17:53:46.435Z,3.55
2023-03-21T17:56:20.447Z,5.07
2023-03-21T17:58:47.333Z,3.60
2023-03-21T18:01:14.922Z,4.40
2023-03-21T18:03:41.620Z,3.95
2023-03-21T18:06:14.526Z,3.90
2023-03-21T18:08:42.434Z,3.63
2023-03-21T18:11:10.252Z,5.03
2023-03-21T18:13:38.425Z,6.07
2023-03-21T18:16:06.566Z,14.63
2023-03-21T18:18:34.013Z,11.85
2023-03-21T18:21:00.842Z,7.50
2023-03-21T18:23:27.597Z,7.57
2023-03-21T18:25:54.151Z,6.30
2023-03-21T18:28:21.724Z,4.80
2023-03-21T18:31:11.546Z,4.82
2023-03-21T18:33:40.536Z,4.45
2023-03-21T18:36:13.915Z,4.72
2023-03-21T18:38:42.092Z,3.90
2023-03-21T18:41:09.806Z,6.15
2023-03-21T18:46:24.721Z,9.65
2023-03-21T18:48:51.895Z,7.13
2023-03-21T18:51:19.324Z,5.10
2023-03-21T18:53:46.272Z,3.40
2023-03-21T18:56:40.831Z,4.10
2023-03-21T18:59:01.077Z,4.80
2023-03-21T19:01:27.927Z,5.25
2023-03-21T19:04:20.438Z,7.70
2023-03-21T19:06:47.368Z,5.03
2023-03-21T19:09:14.717Z,3.78
2023-03-21T19:11:44.140Z,4.65
2023-03-21T19:14:14.810Z,3.50
2023-03-21T19:17:14.995Z,3.60
2023-03-21T19:19:29.615Z,5.25
2023-03-21T19:21:56.535Z,4.10
2023-03-21T19:24:28.254Z,9.25
2023-03-21T19:26:55.587Z,7.55
2023-03-21T19:29:22.264Z,5.95
2023-03-21T19:31:51.120Z,4.10
2023-03-21T19:34:18.728Z,3.70
2023-03-21T19:36:50.918Z,4.18
2023-03-21T19:39:22.045Z,4.80
2023-03-21T19:41:49.140Z,5.30
2023-03-21T19:44:16.846Z,5.00
2023-03-21T19:46:43.631Z,5.63
2023-03-21T19:49:11.139Z,6.57
2023-03-21T19:51:37.906Z,5.05
2023-03-21T19:54:05.980Z,4.60
2023-03-21T19:56:34.586Z,5.05
2023-03-21T19:59:02.939Z,4.82
2023-03-21T20:01:30.482Z,5.40
2023-03-21T20:03:57.090Z,5.18
2023-03-21T20:06:24.293Z,6.30
2023-03-21T20:11:39.330Z,5.20
2023-03-21T20:14:06.422Z,4.55
2023-03-21T20:16:35.796Z,3.83
2023-03-21T20:19:09.031Z,4.28
2023-03-21T20:21:47.716Z,4.72
2023-03-21T20:24:17.722Z,5.32
2023-03-21T20:26:45.826Z,9.38
2023-03-21T20:30:07.056Z,3.97
2023-03-21T20:32:02.135Z,3.88
2023-03-21T20:34:30.443Z,3.75
2023-03-21T20:36:58.637Z,4.68
2023-03-21T20:39:26.908Z,5.40
2023-03-21T20:41:54.862Z,5.55
2023-03-21T20:44:51.815Z,5.43
2023-03-21T20:47:08.615Z,5.28
2023-03-21T20:49:35.328Z,5.90
2023-03-21T20:54:53.975Z,5.57
2023-03-21T20:57:20.944Z,6.20
2023-03-21T20:59:47.733Z,7.45
2023-03-21T21:02:14.357Z,6.90
2023-03-21T21:05:12.216Z,6.60
2023-03-21T21:07:29.464Z,6.22
2023-03-21T21:09:56.335Z,6.47
2023-03-21T21:12:27.742Z,5.85
2023-03-21T21:14:55.543Z,5.70
2023-03-21T21:20:16.303Z,6.15
2023-03-21T21:22:48.703Z,7.63
2023-03-21T21:25:25.244Z,8.35
2023-03-21T21:27:52.217Z,7.72
2023-03-21T21:30:18.853Z,6.00
2023-03-21T21:32:45.461Z,6.03
2023-03-21T21:35:12.172Z,6.40
2023-03-21T21:37:41.938Z,5.95
2023-03-21T21:40:20.316Z,7.43
2023-03-21T21:42:46.964Z,7.88
2023-03-21T21:45:13.932Z,7.90
2023-03-21T21:47:40.783Z,7.65
2023-03-21T21:50:08.255Z,8.23
2023-03-21T21:52:35.498Z,8.20
2023-03-21T21:55:04.069Z,7.88
2023-03-21T21:57:34.270Z,6.45
2023-03-21T22:00:06.162Z,7.22
2023-03-21T22:02:32.887Z,6.15
2023-03-21T22:04:59.558Z,6.15
2023-03-21T22:07:27.522Z,7.57
2023-03-21T22:09:54.557Z,6.25
2023-03-21T22:12:21.428Z,5.97
2023-03-21T22:14:48.048Z,6.13
2023-03-21T22:17:14.594Z,6.10
2023-03-21T22:19:52.686Z,5.85
2023-03-21T22:22:26.038Z,5.60
2023-03-21T22:24:56.274Z,5.90
2023-03-21T22:27:22.881Z,5.50
2023-03-21T22:29:49.741Z,5.55
2023-03-21T22:32:16.662Z,6.90
2023-03-21T22:34:43.202Z,6.05
2023-03-21T22:37:09.767Z,7.05
2023-03-21T22:39:37.471Z,7.40
2023-03-21T22:42:05.005Z,6.65
2023-03-21T22:44:35.588Z,7.97
2023-03-21T22:47:04.890Z,9.85
2023-03-21T22:49:34.555Z,9.20
2023-03-21T22:52:03.265Z,7.88
2023-03-21T22:54:30.057Z,6.57
2023-03-21T22:56:59.839Z,6.47
2023-03-21T22:59:27.562Z,6.45
2023-03-21T23:01:54.425Z,6.45
2023-03-21T23:04:21.184Z,7.43
2023-03-21T23:06:47.771Z,7.38
2023-03-21T23:09:14.726Z,8.00
2023-03-21T23:11:42.936Z,9.27
2023-03-21T23:14:10.194Z,8.98
2023-03-21T23:16:38.427Z,7.13
2023-03-21T23:19:05.498Z,7.78
2023-03-21T23:21:34.588Z,8.23
2023-03-21T23:24:01.314Z,7.78
2023-03-21T23:26:28.578Z,6.35
2023-03-21T23:28:55.378Z,5.32
2023-03-21T23:31:24.563Z,6.57
2023-03-21T23:33:51.410Z,5.30
2023-03-21T23:36:20.157Z,5.90
2023-03-21T23:38:47.175Z,6.05
2023-03-21T23:41:17.125Z,6.10
2023-03-21T23:43:44.327Z,6.78
2023-03-21T23:46:12.823Z,5.30
2023-03-21T23:48:41.286Z,5.50
2023-03-21T23:51:08.820Z,5.43
2023-03-21T23:53:37.414Z,5.75
2023-03-21T23:56:11.405Z,5.70
2023-03-21T23:58:37.946Z,5.93
